sensor_id;sensor_type;location;lat;lon;timestamp;pressure;altitude;pressure_sealevel;temperature;humidity
76609;BME280;65928;53.936;27.540;2023-03-01T00:01:50;99139.94;;;-1.49;81.48
76609;BME280;65928;53.936;27.540;2023-03-01T00:04:16;99139.06;;;-1.34;81.63
76609;BME280;65928;53.936;27.540;2023-03-01T00:06:44;99119.22;;;-1.55;82.09
76609;BME280;65928;53.936;27.540;2023-03-01T00:09:12;99529.34;;;1.22;81.55
76609;BME280;65928;53.936;27.540;2023-03-01T00:11:38;99593.34;;;1.59;81.04
76609;BME280;65928;53.936;27.540;2023-03-01T00:14:03;99196.81;;;-0.85;81.17
76609;BME280;65928;53.936;27.540;2023-03-01T00:16:36;99664.53;;;1.56;81.36
76609;BME280;65928;53.936;27.540;2023-03-01T00:19:04;99625.56;;;1.38;81.72
76609;BME280;65928;53.936;27.540;2023-03-01T00:21:29;99135.56;;;-1.18;81.37
76609;BME280;65928;53.936;27.540;2023-03-01T00:23:56;99615.22;;;1.26;81.76
76609;BME280;65928;53.936;27.540;2023-03-01T00:26:24;99526.00;;;0.99;81.74
76609;BME280;65928;53.936;27.540;2023-03-01T00:28:50;99683.63;;;1.54;81.83
76609;BME280;65928;53.936;27.540;2023-03-01T00:31:22;99577.03;;;1.25;81.89
76609;BME280;65928;53.936;27.540;2023-03-01T00:33:48;99595.09;;;1.54;82.00
76609;BME280;65928;53.936;27.540;2023-03-01T00:36:14;99672.34;;;1.55;81.45
76609;BME280;65928;53.936;27.540;2023-03-01T00:38:45;99450.75;;;0.61;81.17
76609;BME280;65928;53.936;27.540;2023-03-01T00:41:14;99588.06;;;1.68;81.50
76609;BME280;65928;53.936;27.540;2023-03-01T00:43:40;99606.22;;;1.80;81.93
76609;BME280;65928;53.936;27.540;2023-03-01T00:46:11;99468.66;;;1.18;81.04
76609;BME280;65928;53.936;27.540;2023-03-01T00:48:37;99241.63;;;-0.29;81.11
76609;BME280;65928;53.936;27.540;2023-03-01T00:53:36;99171.59;;;-0.50;80.50
76609;BME280;65928;53.936;27.540;2023-03-01T00:56:02;99557.66;;;1.70;81.15
76609;BME280;65928;53.936;27.540;2023-03-01T00:58:28;99436.56;;;1.13;80.35
76609;BME280;65928;53.936;27.540;2023-03-01T01:00:54;99561.94;;;1.80;80.89
76609;BME280;65928;53.936;27.540;2023-03-01T01:03:19;99555.78;;;1.90;80.81
76609;BME280;65928;53.936;27.540;2023-03-01T01:05:45;99561.81;;;1.94;80.66
76609;BME280;65928;53.936;27.540;2023-03-01T01:08:11;98972.41;;;-1.44;80.26
76609;BME280;65928;53.936;27.540;2023-03-01T01:10:36;99445.09;;;1.35;80.07
76609;BME280;65928;53.936;27.540;2023-03-01T01:13:02;99408.94;;;0.96;80.30
76609;BME280;65928;53.936;27.540;2023-03-01T01:15:28;99560.09;;;1.91;80.91
76609;BME280;65928;53.936;27.540;2023-03-01T01:17:53;99054.22;;;-0.95;80.39
76609;BME280;65928;53.936;27.540;2023-03-01T01:20:20;99539.28;;;1.88;80.67
76609;BME280;65928;53.936;27.540;2023-03-01T01:22:45;99530.66;;;1.81;80.10
76609;BME280;65928;53.936;27.540;2023-03-01T01:25:11;99162.84;;;-0.28;79.89
76609;BME280;65928;53.936;27.540;2023-03-01T01:27:37;99550.44;;;2.02;80.17
76609;BME280;65928;53.936;27.540;2023-03-01T01:30:03;99076.66;;;-0.84;79.37
76609;BME280;65928;53.936;27.540;2023-03-01T01:32:29;99511.59;;;1.76;80.42
76609;BME280;65928;53.936;27.540;2023-03-01T01:34:55;99164.63;;;-0.41;79.65
76609;BME280;65928;53.936;27.540;2023-03-01T01:37:21;99086.91;;;-0.62;79.73
76609;BME280;65928;53.936;27.540;2023-03-01T01:39:46;99548.53;;;2.25;79.38
76609;BME280;65928;53.936;27.540;2023-03-01T01:42:16;99075.75;;;-0.79;79.29
76609;BME280;65928;53.936;27.540;2023-03-01T01:44:42;99283.63;;;0.44;79.61
76609;BME280;65928;53.936;27.540;2023-03-01T01:47:16;99521.03;;;1.87;78.89
76609;BME280;65928;53.936;27.540;2023-03-01T01:49:56;99606.84;;;2.14;78.20
76609;BME280;65928;53.936;27.540;2023-03-01T01:52:29;99162.84;;;-0.28;78.58
76609;BME280;65928;53.936;27.540;2023-03-01T01:55:09;99539.91;;;2.16;78.49
76609;BME280;65928;53.936;27.540;2023-03-01T02:00:18;99534.03;;;1.91;77.88
76609;BME280;65928;53.936;27.540;2023-03-01T02:02:47;99030.00;;;-0.87;77.46
76609;BME280;65928;53.936;27.540;2023-03-01T02:08:01;99553.97;;;2.00;78.17
76609;BME280;65928;53.936;27.540;2023-03-01T02:10:27;99065.41;;;-0.83;77.36
76609;BME280;65928;53.936;27.540;2023-03-01T02:12:54;99573.00;;;2.08;78.13
76609;BME280;65928;53.936;27.540;2023-03-01T02:15:22;99391.34;;;1.28;78.08
76609;BME280;65928;53.936;27.540;2023-03-01T02:17:48;99478.69;;;1.66;78.05
76609;BME280;65928;53.936;27.540;2023-03-01T02:20:27;99542.53;;;2.14;76.85
76609;BME280;65928;53.936;27.540;2023-03-01T02:22:58;99427.72;;;1.37;77.32
76609;BME280;65928;53.936;27.540;2023-03-01T02:30:46;99581.78;;;1.96;77.29
76609;BME280;65928;53.936;27.540;2023-03-01T02:33:31;99491.56;;;1.81;77.38
76609;BME280;65928;53.936;27.540;2023-03-01T02:36:00;99542.00;;;1.76;77.21
76609;BME280;65928;53.936;27.540;2023-03-01T02:38:26;99093.84;;;-0.70;76.67
76609;BME280;65928;53.936;27.540;2023-03-01T02:40:54;99144.75;;;-0.40;77.87
76609;BME280;65928;53.936;27.540;2023-03-01T02:43:24;99115.41;;;-0.51;77.06
76609;BME280;65928;53.936;27.540;2023-03-01T02:45:53;99588.75;;;1.94;77.18
76609;BME280;65928;53.936;27.540;2023-03-01T02:48:22;99031.78;;;-1.00;76.26
76609;BME280;65928;53.936;27.540;2023-03-01T02:51:16;99524.56;;;1.81;77.21
76609;BME280;65928;53.936;27.540;2023-03-01T02:57:02;98981.81;;;-1.29;77.30
76609;BME280;65928;53.936;27.540;2023-03-01T02:59:31;99089.44;;;-0.54;76.62
76609;BME280;65928;53.936;27.540;2023-03-01T03:02:05;99528.88;;;1.85;77.42
76609;BME280;65928;53.936;27.540;2023-03-01T03:04:30;99536.41;;;2.18;76.99
76609;BME280;65928;53.936;27.540;2023-03-01T03:06:56;99537.38;;;2.08;76.88
76609;BME280;65928;53.936;27.540;2023-03-01T03:09:21;99590.41;;;2.06;76.15
76609;BME280;65928;53.936;27.540;2023-03-01T03:11:47;99601.72;;;1.99;76.76
76609;BME280;65928;53.936;27.540;2023-03-01T03:14:15;99429.59;;;1.20;77.01
76609;BME280;65928;53.936;27.540;2023-03-01T03:16:43;99205.97;;;-0.03;76.39
76609;BME280;65928;53.936;27.540;2023-03-01T03:19:09;99452.88;;;1.38;76.65
76609;BME280;65928;53.936;27.540;2023-03-01T03:21:35;99074.09;;;-0.86;76.31
76609;BME280;65928;53.936;27.540;2023-03-01T03:24:01;99564.44;;;1.92;76.31
76609;BME280;65928;53.936;27.540;2023-03-01T03:26:27;99074.09;;;-0.91;75.53
76609;BME280;65928;53.936;27.540;2023-03-01T03:28:52;99211.03;;;0.18;74.98
76609;BME280;65928;53.936;27.540;2023-03-01T03:31:18;99549.69;;;1.91;75.57
76609;BME280;65928;53.936;27.540;2023-03-01T03:33:43;99549.59;;;2.03;75.22
76609;BME280;65928;53.936;27.540;2023-03-01T03:36:09;99553.75;;;2.22;75.11
76609;BME280;65928;53.936;27.540;2023-03-01T03:38:38;99548.56;;;2.21;74.87
76609;BME280;65928;53.936;27.540;2023-03-01T03:41:07;99559.56;;;2.47;74.22
76609;BME280;65928;53.936;27.540;2023-03-01T03:43:35;99377.50;;;1.26;73.89
76609;BME280;65928;53.936;27.540;2023-03-01T03:46:02;99551.06;;;2.30;73.75
76609;BME280;65928;53.936;27.540;2023-03-01T03:48:35;99575.44;;;2.27;73.09
76609;BME280;65928;53.936;27.540;2023-03-01T03:51:01;99384.50;;;1.16;73.42
76609;BME280;65928;53.936;27.540;2023-03-01T03:53:28;99131.69;;;-0.27;74.06
76609;BME280;65928;53.936;27.540;2023-03-01T03:55:54;99557.25;;;2.20;73.67
76609;BME280;65928;53.936;27.540;2023-03-01T03:58:22;99081.69;;;-0.53;73.50
76609;BME280;65928;53.936;27.540;2023-03-01T04:00:52;99472.47;;;1.81;74.01
76609;BME280;65928;53.936;27.540;2023-03-01T04:03:19;99632.00;;;2.19;74.02
76609;BME280;65928;53.936;27.540;2023-03-01T04:05:45;99524.63;;;1.76;73.89
76609;BME280;65928;53.936;27.540;2023-03-01T04:08:11;99542.75;;;1.89;74.01
76609;BME280;65928;53.936;27.540;2023-03-01T04:10:42;99486.56;;;1.57;74.04
76609;BME280;65928;53.936;27.540;2023-03-01T04:13:11;99569.53;;;2.07;74.45
76609;BME280;65928;53.936;27.540;2023-03-01T04:15:38;99158.50;;;-0.22;73.51
76609;BME280;65928;53.936;27.540;2023-03-01T04:18:04;99598.03;;;2.24;74.17
76609;BME280;65928;53.936;27.540;2023-03-01T04:20:32;99566.19;;;1.89;73.80
76609;BME280;65928;53.936;27.540;2023-03-01T04:23:06;99570.28;;;2.18;73.79
76609;BME280;65928;53.936;27.540;2023-03-01T04:25:44;99580.53;;;2.38;74.04
76609;BME280;65928;53.936;27.540;2023-03-01T04:28:10;99551.97;;;2.27;73.74
76609;BME280;65928;53.936;27.540;2023-03-01T04:30:37;99527.28;;;1.67;73.25
76609;BME280;65928;53.936;27.540;2023-03-01T04:33:05;99585.66;;;2.47;72.87
76609;BME280;65928;53.936;27.540;2023-03-01T04:35:32;99088.59;;;-0.56;73.18
76609;BME280;65928;53.936;27.540;2023-03-01T04:37:57;99109.28;;;-0.40;73.08
76609;BME280;65928;53.936;27.540;2023-03-01T04:40:23;99109.16;;;-0.23;73.91
76609;BME280;65928;53.936;27.540;2023-03-01T04:42:48;99195.66;;;-0.15;74.40
76609;BME280;65928;53.936;27.540;2023-03-01T04:45:14;99321.66;;;0.55;74.24
76609;BME280;65928;53.936;27.540;2023-03-01T04:47:41;99100.69;;;-0.52;73.79
76609;BME280;65928;53.936;27.540;2023-03-01T04:50:08;99568.59;;;2.14;74.12
76609;BME280;65928;53.936;27.540;2023-03-01T04:52:34;99565.06;;;2.21;73.75
76609;BME280;65928;53.936;27.540;2023-03-01T04:55:00;99465.91;;;1.38;73.93
76609;BME280;65928;53.936;27.540;2023-03-01T04:57:26;99112.91;;;-0.72;74.14
76609;BME280;65928;53.936;27.540;2023-03-01T04:59:52;99137.88;;;-0.52;73.05
76609;BME280;65928;53.936;27.540;2023-03-01T05:02:17;99638.25;;;1.93;73.62
76609;BME280;65928;53.936;27.540;2023-03-01T05:04:43;99457.31;;;1.21;73.79
76609;BME280;65928;53.936;27.540;2023-03-01T05:07:08;99650.50;;;1.80;73.66
76609;BME280;65928;53.936;27.540;2023-03-01T05:09:34;99583.72;;;1.68;73.68
76609;BME280;65928;53.936;27.540;2023-03-01T05:11:59;99163.19;;;-1.05;73.75
76609;BME280;65928;53.936;27.540;2023-03-01T05:14:25;99611.44;;;1.78;74.29
76609;BME280;65928;53.936;27.540;2023-03-01T05:16:50;99620.25;;;1.61;74.59
76609;BME280;65928;53.936;27.540;2023-03-01T05:19:16;99386.81;;;0.27;74.58
76609;BME280;65928;53.936;27.540;2023-03-01T05:21:42;99157.13;;;-1.04;74.52
76609;BME280;65928;53.936;27.540;2023-03-01T05:24:27;99523.22;;;1.29;74.01
76609;BME280;65928;53.936;27.540;2023-03-01T05:26:53;99436.03;;;0.60;74.49
76609;BME280;65928;53.936;27.540;2023-03-01T05:29:23;99309.91;;;-0.17;74.98
76609;BME280;65928;53.936;27.540;2023-03-01T05:31:56;99612.50;;;1.49;75.90
76609;BME280;65928;53.936;27.540;2023-03-01T05:34:33;99606.47;;;1.35;77.67
76609;BME280;65928;53.936;27.540;2023-03-01T05:37:01;99148.59;;;-1.78;81.74
76609;BME280;65928;53.936;27.540;2023-03-01T05:39:28;99526.16;;;0.55;82.73
76609;BME280;65928;53.936;27.540;2023-03-01T05:41:55;99146.00;;;-1.71;81.42
76609;BME280;65928;53.936;27.540;2023-03-01T05:44:21;99236.69;;;-1.44;81.96
76609;BME280;65928;53.936;27.540;2023-03-01T05:46:46;99623.19;;;0.75;83.26
76609;BME280;65928;53.936;27.540;2023-03-01T05:49:12;99589.47;;;0.18;85.04
76609;BME280;65928;53.936;27.540;2023-03-01T05:51:42;99658.78;;;0.26;87.20
76609;BME280;65928;53.936;27.540;2023-03-01T05:54:09;99736.72;;;0.20;85.45
76609;BME280;65928;53.936;27.540;2023-03-01T05:56:37;99611.13;;;-0.09;86.63
76609;BME280;65928;53.936;27.540;2023-03-01T05:59:03;99216.63;;;-2.55;87.12
76609;BME280;65928;53.936;27.540;2023-03-01T06:01:31;99682.16;;;0.40;88.11
76609;BME280;65928;53.936;27.540;2023-03-01T06:03:57;99704.69;;;0.38;85.79
76609;BME280;65928;53.936;27.540;2023-03-01T06:06:23;99670.03;;;0.48;85.23
76609;BME280;65928;53.936;27.540;2023-03-01T06:08:49;99716.84;;;0.52;85.43
76609;BME280;65928;53.936;27.540;2023-03-01T06:11:14;99471.78;;;-0.33;85.04
76609;BME280;65928;53.936;27.540;2023-03-01T06:13:42;99196.06;;;-2.08;83.30
76609;BME280;65928;53.936;27.540;2023-03-01T06:16:08;99238.31;;;-2.15;81.56
76609;BME280;65928;53.936;27.540;2023-03-01T06:18:34;99308.41;;;-1.32;81.24
76609;BME280;65928;53.936;27.540;2023-03-01T06:21:00;99201.28;;;-1.87;82.20
76609;BME280;65928;53.936;27.540;2023-03-01T06:23:25;99677.81;;;0.76;81.68
76609;BME280;65928;53.936;27.540;2023-03-01T06:25:51;99123.53;;;-2.49;79.95
76609;BME280;65928;53.936;27.540;2023-03-01T06:28:16;99196.03;;;-2.17;79.42
76609;BME280;65928;53.936;27.540;2023-03-01T06:30:42;99723.78;;;0.70;78.05
76609;BME280;65928;53.936;27.540;2023-03-01T06:33:08;99329.13;;;-1.38;78.54
76609;BME280;65928;53.936;27.540;2023-03-01T06:35:33;99681.25;;;0.80;78.36
76609;BME280;65928;53.936;27.540;2023-03-01T06:38:03;99224.53;;;-2.07;75.58
76609;BME280;65928;53.936;27.540;2023-03-01T06:40:30;99301.47;;;-1.21;78.41
76609;BME280;65928;53.936;27.540;2023-03-01T06:42:56;99782.69;;;1.12;75.46
76609;BME280;65928;53.936;27.540;2023-03-01T06:45:22;99406.94;;;-0.82;76.44
76609;BME280;65928;53.936;27.540;2023-03-01T06:47:48;99247.03;;;-1.83;74.79
76609;BME280;65928;53.936;27.540;2023-03-01T06:50:14;99322.22;;;-1.36;75.67
76609;BME280;65928;53.936;27.540;2023-03-01T06:52:40;99330.81;;;-1.51;74.16
76609;BME280;65928;53.936;27.540;2023-03-01T06:55:06;99741.06;;;0.92;73.91
76609;BME280;65928;53.936;27.540;2023-03-01T06:57:32;99346.38;;;-1.52;74.19
76609;BME280;65928;53.936;27.540;2023-03-01T06:59:58;99433.66;;;-1.18;74.79
76609;BME280;65928;53.936;27.540;2023-03-01T07:02:24;99764.50;;;0.75;72.90
76609;BME280;65928;53.936;27.540;2023-03-01T07:04:50;99776.63;;;0.84;73.65
76609;BME280;65928;53.936;27.540;2023-03-01T07:07:16;99317.84;;;-1.57;73.57
76609;BME280;65928;53.936;27.540;2023-03-01T07:09:44;99275.50;;;-1.88;72.41
76609;BME280;65928;53.936;27.540;2023-03-01T07:12:09;99735.03;;;0.85;72.23
76609;BME280;65928;53.936;27.540;2023-03-01T07:14:35;99235.66;;;-2.35;70.09
76609;BME280;65928;53.936;27.540;2023-03-01T07:17:00;99773.16;;;0.82;70.97
76609;BME280;65928;53.936;27.540;2023-03-01T07:19:26;99749.75;;;0.74;71.21
76609;BME280;65928;53.936;27.540;2023-03-01T07:21:51;99775.75;;;1.00;71.21
76609;BME280;65928;53.936;27.540;2023-03-01T07:24:17;99764.50;;;0.75;70.76
76609;BME280;65928;53.936;27.540;2023-03-01T07:26:42;99275.53;;;-1.69;70.05
76609;BME280;65928;53.936;27.540;2023-03-01T07:29:10;99783.53;;;1.15;70.17
76609;BME280;65928;53.936;27.540;2023-03-01T07:31:35;99855.53;;;1.31;69.44
76609;BME280;65928;53.936;27.540;2023-03-01T07:34:02;99294.47;;;-1.93;68.59
76609;BME280;65928;53.936;27.540;2023-03-01T07:36:28;99365.41;;;-0.87;70.27
76609;BME280;65928;53.936;27.540;2023-03-01T07:38:54;99802.59;;;1.31;68.60
76609;BME280;65928;53.936;27.540;2023-03-01T07:41:21;99296.28;;;-1.32;68.50
76609;BME280;65928;53.936;27.540;2023-03-01T07:43:46;99389.66;;;-0.82;68.79
76609;BME280;65928;53.936;27.540;2023-03-01T07:46:12;99729.84;;;0.73;67.97
76609;BME280;65928;53.936;27.540;2023-03-01T07:48:37;99780.84;;;1.50;68.16
76609;BME280;65928;53.936;27.540;2023-03-01T07:51:05;99278.13;;;-1.53;67.82
76609;BME280;65928;53.936;27.540;2023-03-01T07:53:31;99381.84;;;-0.88;67.94
76609;BME280;65928;53.936;27.540;2023-03-01T07:56:12;99388.75;;;-0.87;67.19
76609;BME280;65928;53.936;27.540;2023-03-01T07:58:40;99775.59;;;1.69;67.47
76609;BME280;65928;53.936;27.540;2023-03-01T08:01:09;99742.72;;;1.40;66.76
76609;BME280;65928;53.936;27.540;2023-03-01T08:03:36;99483.88;;;0.02;67.61
76609;BME280;65928;53.936;27.540;2023-03-01T08:06:03;99764.38;;;1.51;66.00
76609;BME280;65928;53.936;27.540;2023-03-01T08:08:29;99473.53;;;-0.38;66.90
76609;BME280;65928;53.936;27.540;2023-03-01T08:10:59;99722.00;;;1.01;66.28
76609;BME280;65928;53.936;27.540;2023-03-01T08:13:25;99714.97;;;1.30;67.14
76609;BME280;65928;53.936;27.540;2023-03-01T08:15:51;99826.78;;;1.81;66.54
76609;BME280;65928;53.936;27.540;2023-03-01T08:18:17;99322.19;;;-1.12;65.71
76609;BME280;65928;53.936;27.540;2023-03-01T08:20:44;99848.56;;;1.53;67.01
76609;BME280;65928;53.936;27.540;2023-03-01T08:23:09;99407.78;;;-0.58;65.96
76609;BME280;65928;53.936;27.540;2023-03-01T08:25:35;99859.81;;;1.76;66.63
76609;BME280;65928;53.936;27.540;2023-03-01T08:28:01;99812.84;;;1.93;67.65
76609;BME280;65928;53.936;27.540;2023-03-01T08:30:27;99423.38;;;-0.62;66.63
76609;BME280;65928;53.936;27.540;2023-03-01T08:32:52;99897.13;;;1.79;66.49
76609;BME280;65928;53.936;27.540;2023-03-01T08:35:19;99886.69;;;1.98;65.71
76609;BME280;65928;53.936;27.540;2023-03-01T08:37:44;99870.16;;;1.99;66.25
76609;BME280;65928;53.936;27.540;2023-03-01T08:40:10;99823.28;;;1.94;64.74
76609;BME280;65928;53.936;27.540;2023-03-01T08:42:39;99764.91;;;2.24;65.26
76609;BME280;65928;53.936;27.540;2023-03-01T08:45:05;99794.53;;;2.06;63.58
76609;BME280;65928;53.936;27.540;2023-03-01T08:47:31;99458.69;;;0.31;63.89
76609;BME280;65928;53.936;27.540;2023-03-01T08:49:59;99400.72;;;0.06;63.26
76609;BME280;65928;53.936;27.540;2023-03-01T08:52:24;99897.91;;;2.10;61.83
76609;BME280;65928;53.936;27.540;2023-03-01T08:54:51;99318.75;;;-0.72;60.65
76609;BME280;65928;53.936;27.540;2023-03-01T08:57:18;99874.53;;;1.98;60.17
76609;BME280;65928;53.936;27.540;2023-03-01T08:59:44;99812.84;;;1.97;60.64
76609;BME280;65928;53.936;27.540;2023-03-01T09:02:14;99316.97;;;-0.61;61.67
76609;BME280;65928;53.936;27.540;2023-03-01T09:04:40;99323.03;;;-0.53;62.31
76609;BME280;65928;53.936;27.540;2023-03-01T09:07:07;99477.53;;;0.76;63.05
76609;BME280;65928;53.936;27.540;2023-03-01T09:09:32;99333.28;;;-0.17;61.44
76609;BME280;65928;53.936;27.540;2023-03-01T09:11:58;99334.09;;;-0.07;62.63
76609;BME280;65928;53.936;27.540;2023-03-01T09:14:23;99812.38;;;3.70;62.71
76609;BME280;65928;53.936;27.540;2023-03-01T09:16:49;99735.13;;;2.56;60.88
76609;BME280;65928;53.936;27.540;2023-03-01T09:19:15;99596.34;;;2.21;62.33
76609;BME280;65928;53.936;27.540;2023-03-01T09:21:41;99716.06;;;2.47;60.45
76609;BME280;65928;53.936;27.540;2023-03-01T09:24:13;99782.25;;;2.32;60.32
76609;BME280;65928;53.936;27.540;2023-03-01T09:26:39;99802.72;;;2.88;59.07
76609;BME280;65928;53.936;27.540;2023-03-01T09:29:05;99822.78;;;2.83;59.66
76609;BME280;65928;53.936;27.540;2023-03-01T09:31:30;99830.59;;;2.80;57.38
76609;BME280;65928;53.936;27.540;2023-03-01T09:33:56;99744.88;;;2.30;57.42
76609;BME280;65928;53.936;27.540;2023-03-01T09:36:23;99760.53;;;2.30;56.12
76609;BME280;65928;53.936;27.540;2023-03-01T09:38:50;99831.41;;;2.88;57.65
76609;BME280;65928;53.936;27.540;2023-03-01T09:43:53;99895.94;;;2.60;56.86
76609;BME280;65928;53.936;27.540;2023-03-01T09:46:23;99732.97;;;1.90;56.80
76609;BME280;65928;53.936;27.540;2023-03-01T09:48:56;99802.28;;;2.24;56.96
76609;BME280;65928;53.936;27.540;2023-03-01T09:51:33;99824.72;;;2.52;56.90
76609;BME280;65928;53.936;27.540;2023-03-01T09:54:02;99540.50;;;1.43;58.29
76609;BME280;65928;53.936;27.540;2023-03-01T09:59:56;99862.22;;;3.53;58.69
76609;BME280;65928;53.936;27.540;2023-03-01T10:02:45;99828.66;;;3.11;54.62
76609;BME280;65928;53.936;27.540;2023-03-01T10:10:44;99431.94;;;1.50;54.78
76609;BME280;65928;53.936;27.540;2023-03-01T10:13:26;99805.88;;;3.26;52.94
76609;BME280;65928;53.936;27.540;2023-03-01T10:15:56;99334.81;;;0.24;55.72
76609;BME280;65928;53.936;27.540;2023-03-01T10:18:31;99428.78;;;1.12;53.29
76609;BME280;65928;53.936;27.540;2023-03-01T10:21:02;99846.28;;;3.79;54.20
76609;BME280;65928;53.936;27.540;2023-03-01T10:23:30;99734.72;;;3.02;54.89
76609;BME280;65928;53.936;27.540;2023-03-01T10:26:11;99357.56;;;1.22;54.58
76609;BME280;65928;53.936;27.540;2023-03-01T10:29:09;99795.97;;;4.28;51.99
76609;BME280;65928;53.936;27.540;2023-03-01T10:31:50;99216.16;;;1.21;54.12
76609;BME280;65928;53.936;27.540;2023-03-01T10:36:47;99714.72;;;3.75;49.05
76609;BME280;65928;53.936;27.540;2023-03-01T10:39:18;99669.47;;;3.75;48.69
76609;BME280;65928;53.936;27.540;2023-03-01T10:41:59;99531.19;;;2.96;48.37
76609;BME280;65928;53.936;27.540;2023-03-01T10:44:45;99426.66;;;2.39;48.11
76609;BME280;65928;53.936;27.540;2023-03-01T10:50:08;99351.19;;;1.54;48.41
76609;BME280;65928;53.936;27.540;2023-03-01T10:52:59;99699.56;;;4.59;51.67
76609;BME280;65928;53.936;27.540;2023-03-01T10:55:43;99349.19;;;1.79;47.11
76609;BME280;65928;53.936;27.540;2023-03-01T11:03:15;99850.16;;;4.16;47.85
76609;BME280;65928;53.936;27.540;2023-03-01T11:13:31;99763.88;;;3.47;47.50
76609;BME280;65928;53.936;27.540;2023-03-01T11:16:05;99322.03;;;1.15;48.48
76609;BME280;65928;53.936;27.540;2023-03-01T11:18:31;99768.03;;;3.65;47.13
76609;BME280;65928;53.936;27.540;2023-03-01T11:20:59;99788.16;;;3.55;47.56
76609;BME280;65928;53.936;27.540;2023-03-01T11:23:28;99648.84;;;2.76;48.36
76609;BME280;65928;53.936;27.540;2023-03-01T11:25:57;99695.34;;;3.23;48.69
76609;BME280;65928;53.936;27.540;2023-03-01T11:28:25;99752.63;;;3.36;48.09
76609;BME280;65928;53.936;27.540;2023-03-01T11:31:08;99633.81;;;2.98;48.80
76609;BME280;65928;53.936;27.540;2023-03-01T11:36:57;99788.75;;;4.45;48.74
76609;BME280;65928;53.936;27.540;2023-03-01T11:39:21;99741.63;;;4.45;48.55
76609;BME280;65928;53.936;27.540;2023-03-01T11:41:56;99721.41;;;4.00;48.15
76609;BME280;65928;53.936;27.540;2023-03-01T11:44:28;99372.69;;;1.74;47.90
76609;BME280;65928;53.936;27.540;2023-03-01T11:47:05;99782.53;;;3.90;48.85
76609;BME280;65928;53.936;27.540;2023-03-01T12:02:50;99804.19;;;4.64;46.73
76609;BME280;65928;53.936;27.540;2023-03-01T12:05:32;99415.50;;;2.95;47.68
76609;BME280;65928;53.936;27.540;2023-03-01T12:22:25;99775.41;;;4.01;47.34
76609;BME280;65928;53.936;27.540;2023-03-01T12:25:33;99812.19;;;3.86;46.91
76609;BME280;65928;53.936;27.540;2023-03-01T12:38:42;99753.16;;;3.69;48.03
76609;BME280;65928;53.936;27.540;2023-03-01T12:44:04;99768.88;;;3.65;49.26
76609;BME280;65928;53.936;27.540;2023-03-01T12:49:17;99487.19;;;1.88;48.21
76609;BME280;65928;53.936;27.540;2023-03-01T12:51:55;99721.31;;;3.38;48.31
76609;BME280;65928;53.936;27.540;2023-03-01T12:54:32;99784.50;;;3.70;48.63
76609;BME280;65928;53.936;27.540;2023-03-01T12:57:28;99758.41;;;3.67;48.58
76609;BME280;65928;53.936;27.540;2023-03-01T13:00:17;99768.50;;;3.96;49.45
76609;BME280;65928;53.936;27.540;2023-03-01T13:02:56;99808.63;;;3.93;48.29
76609;BME280;65928;53.936;27.540;2023-03-01T13:05:42;99743.78;;;3.51;48.61
76609;BME280;65928;53.936;27.540;2023-03-01T13:08:22;99427.41;;;1.71;49.40
76609;BME280;65928;53.936;27.540;2023-03-01T13:10:59;99824.88;;;3.40;50.13
76609;BME280;65928;53.936;27.540;2023-03-01T13:13:27;99697.13;;;3.19;50.60
76609;BME280;65928;53.936;27.540;2023-03-01T13:15:53;99767.16;;;3.61;50.63
76609;BME280;65928;53.936;27.540;2023-03-01T13:20:48;99815.41;;;4.06;52.18
76609;BME280;65928;53.936;27.540;2023-03-01T13:31:01;99759.13;;;3.78;51.42
76609;BME280;65928;53.936;27.540;2023-03-01T13:35:58;99754.09;;;3.61;51.21
76609;BME280;65928;53.936;27.540;2023-03-01T13:38:56;99327.34;;;1.09;50.89
76609;BME280;65928;53.936;27.540;2023-03-01T13:44:35;99753.28;;;3.58;50.40
76609;BME280;65928;53.936;27.540;2023-03-01T13:50:01;99755.47;;;3.94;50.77
76609;BME280;65928;53.936;27.540;2023-03-01T13:52:38;99800.91;;;3.84;50.58
76609;BME280;65928;53.936;27.540;2023-03-01T13:57:47;99762.84;;;4.27;50.57
76609;BME280;65928;53.936;27.540;2023-03-01T14:00:33;99326.94;;;2.25;51.27
76609;BME280;65928;53.936;27.540;2023-03-01T14:03:03;99348.31;;;1.80;50.06
76609;BME280;65928;53.936;27.540;2023-03-01T14:05:30;99718.97;;;3.85;49.74
76609;BME280;65928;53.936;27.540;2023-03-01T14:07:56;99639.72;;;3.82;50.11
76609;BME280;65928;53.936;27.540;2023-03-01T14:10:25;99738.00;;;4.55;51.68
76609;BME280;65928;53.936;27.540;2023-03-01T14:16:16;99318.38;;;1.40;49.47
76609;BME280;65928;53.936;27.540;2023-03-01T14:18:47;99736.22;;;4.00;48.74
76609;BME280;65928;53.936;27.540;2023-03-01T14:21:17;99319.06;;;1.54;48.61
76609;BME280;65928;53.936;27.540;2023-03-01T14:23:43;99262.00;;;1.34;50.97
76609;BME280;65928;53.936;27.540;2023-03-01T14:26:09;99234.41;;;1.17;49.48
76609;BME280;65928;53.936;27.540;2023-03-01T14:28:38;99710.53;;;3.65;49.85
76609;BME280;65928;53.936;27.540;2023-03-01T14:33:55;99718.94;;;4.47;51.71
76609;BME280;65928;53.936;27.540;2023-03-01T14:36:27;99749.16;;;4.67;50.56
76609;BME280;65928;53.936;27.540;2023-03-01T14:38:53;99644.13;;;3.78;51.65
76609;BME280;65928;53.936;27.540;2023-03-01T14:41:25;99685.59;;;4.02;50.12
76609;BME280;65928;53.936;27.540;2023-03-01T14:43:57;99764.31;;;3.83;51.19
76609;BME280;65928;53.936;27.540;2023-03-01T14:46:37;99710.63;;;4.21;52.99
76609;BME280;65928;53.936;27.540;2023-03-01T14:49:09;99690.50;;;3.64;49.78
76609;BME280;65928;53.936;27.540;2023-03-01T14:51:36;99717.44;;;3.67;51.09
76609;BME280;65928;53.936;27.540;2023-03-01T14:54:02;99602.31;;;3.16;51.40
76609;BME280;65928;53.936;27.540;2023-03-01T14:56:44;99677.84;;;3.31;50.08
76609;BME280;65928;53.936;27.540;2023-03-01T14:59:10;99262.34;;;1.00;52.32
76609;BME280;65928;53.936;27.540;2023-03-01T15:01:36;99702.16;;;3.34;52.36
76609;BME280;65928;53.936;27.540;2023-03-01T15:04:02;99695.13;;;3.42;52.55
76609;BME280;65928;53.936;27.540;2023-03-01T15:06:28;99336.84;;;1.10;52.10
76609;BME280;65928;53.936;27.540;2023-03-01T15:08:54;99699.75;;;3.18;52.46